createdAt,value
2022-10-09T00:00:26.586Z,4.30
2022-10-09T00:01:26.577Z,4.30
2022-10-09T00:02:26.622Z,4.31
2022-10-09T00:03:26.558Z,4.33
2022-10-09T00:04:26.588Z,4.19
2022-10-09T00:05:26.572Z,4.31
2022-10-09T00:06:26.615Z,4.18
2022-10-09T00:07:26.527Z,4.16
2022-10-09T00:08:26.524Z,4.26
2022-10-09T00:09:26.572Z,4.20
2022-10-09T00:10:26.496Z,4.20
2022-10-09T00:11:27.496Z,4.12
2022-10-09T00:12:26.487Z,4.09
2022-10-09T00:13:26.479Z,4.13
2022-10-09T00:14:26.499Z,4.05
2022-10-09T00:15:26.463Z,3.95
2022-10-09T00:16:26.527Z,4.09
2022-10-09T00:17:26.479Z,4.04
2022-10-09T00:18:26.433Z,4.18
2022-10-09T00:19:26.461Z,4.19
2022-10-09T00:20:26.425Z,4.18
2022-10-09T00:21:26.414Z,4.16
2022-10-09T00:22:26.420Z,4.18
2022-10-09T00:23:26.397Z,4.16
2022-10-09T00:24:26.417Z,4.18
2022-10-09T00:25:26.421Z,4.12
2022-10-09T00:26:26.369Z,4.22
2022-10-09T00:27:26.363Z,4.18
2022-10-09T00:28:26.454Z,4.20
2022-10-09T00:29:26.380Z,4.31
2022-10-09T00:30:26.407Z,4.27
2022-10-09T00:31:26.334Z,4.35
2022-10-09T00:32:26.365Z,4.45
2022-10-09T00:33:26.311Z,4.48
2022-10-09T00:34:26.337Z,4.43
2022-10-09T00:35:26.351Z,4.49
2022-10-09T00:36:26.292Z,4.46
2022-10-09T00:37:26.288Z,4.43
2022-10-09T00:38:26.284Z,4.56
2022-10-09T00:39:26.302Z,4.53
2022-10-09T00:40:26.258Z,4.53
2022-10-09T00:41:26.256Z,4.45
2022-10-09T00:42:26.243Z,4.43
2022-10-09T00:43:26.237Z,4.38
2022-10-09T00:44:26.256Z,4.43
2022-10-09T00:45:26.221Z,4.45
2022-10-09T00:46:26.281Z,4.52
2022-10-09T00:47:26.198Z,4.51
2022-10-09T00:48:26.195Z,4.52
2022-10-09T00:49:26.239Z,4.53
2022-10-09T00:50:26.209Z,4.58
2022-10-09T00:51:26.195Z,4.53
2022-10-09T00:52:26.147Z,4.61
2022-10-09T00:53:26.172Z,4.67
2022-10-09T00:54:26.167Z,4.71
2022-10-09T00:55:26.126Z,4.71
2022-10-09T00:56:26.163Z,4.77
2022-10-09T00:57:26.150Z,4.79
2022-10-09T00:58:26.106Z,4.85
2022-10-09T00:59:26.124Z,4.85
2022-10-09T01:00:26.084Z,4.85
2022-10-09T01:01:26.134Z,4.85
2022-10-09T01:02:26.117Z,4.89
2022-10-09T01:03:26.063Z,4.86
2022-10-09T01:04:26.077Z,4.83
2022-10-09T01:05:26.152Z,4.77
2022-10-09T01:06:26.037Z,4.86
2022-10-09T01:07:26.030Z,4.71
2022-10-09T01:08:26.015Z,4.67
2022-10-09T01:09:26.032Z,4.76
2022-10-09T01:10:25.996Z,4.76
2022-10-09T01:11:25.991Z,4.67
2022-10-09T01:12:25.975Z,4.71
2022-10-09T01:13:25.966Z,4.73
2022-10-09T01:14:25.989Z,4.66
2022-10-09T01:15:26.066Z,4.76
2022-10-09T01:16:25.980Z,4.66
2022-10-09T01:17:25.936Z,4.67
2022-10-09T01:18:25.931Z,4.64
2022-10-09T01:19:25.947Z,4.66
2022-10-09T01:20:25.915Z,4.80
2022-10-09T01:21:25.907Z,4.83
2022-10-09T01:22:25.896Z,4.83
2022-10-09T01:23:25.890Z,4.85
2022-10-09T01:24:25.909Z,4.83
2022-10-09T01:25:25.868Z,4.83
2022-10-09T01:26:25.886Z,4.77
2022-10-09T01:27:25.856Z,4.85
2022-10-09T01:28:25.960Z,4.86
2022-10-09T01:29:25.873Z,4.93
2022-10-09T01:30:25.828Z,4.92
2022-10-09T01:31:25.849Z,4.89
2022-10-09T01:32:25.816Z,4.90
2022-10-09T01:33:25.803Z,4.83
2022-10-09T01:34:25.835Z,4.89
2022-10-09T01:35:25.819Z,4.96
2022-10-09T01:36:25.773Z,4.92
2022-10-09T01:37:25.764Z,4.86
2022-10-09T01:38:25.760Z,4.98
2022-10-09T01:39:25.745Z,5.03
2022-10-09T01:40:25.773Z,5.06
2022-10-09T01:41:25.732Z,5.06
2022-10-09T01:42:25.723Z,5.03
2022-10-09T01:43:25.714Z,5.01
2022-10-09T01:44:25.709Z,4.96
2022-10-09T01:45:25.740Z,4.96
2022-10-09T01:46:25.716Z,5.04
2022-10-09T01:47:25.682Z,5.03
2022-10-09T01:48:25.674Z,4.95
2022-10-09T01:49:25.670Z,5.01
2022-10-09T01:50:25.697Z,5.06
2022-10-09T01:51:25.652Z,5.03
2022-10-09T01:52:25.650Z,4.95
2022-10-09T01:53:25.633Z,4.96
2022-10-09T01:54:25.628Z,4.88
2022-10-09T01:55:25.680Z,4.89
2022-10-09T01:56:25.610Z,4.80
2022-10-09T01:57:25.602Z,4.74
2022-10-09T01:58:25.592Z,4.76
2022-10-09T01:59:25.591Z,4.76
2022-10-09T02:00:25.607Z,4.74
2022-10-09T02:01:25.591Z,4.69
2022-10-09T02:02:25.610Z,4.69
2022-10-09T02:03:25.554Z,4.64
2022-10-09T02:04:25.546Z,4.63
2022-10-09T02:05:25.568Z,4.52
2022-10-09T02:06:25.533Z,4.51
2022-10-09T02:07:25.519Z,4.41
2022-10-09T02:08:25.574Z,4.40
2022-10-09T02:09:25.502Z,4.31
2022-10-09T02:10:25.526Z,4.30
2022-10-09T02:11:25.491Z,4.27
2022-10-09T02:12:25.478Z,4.23
2022-10-09T02:13:25.465Z,4.26
2022-10-09T02:14:25.466Z,4.26
2022-10-09T02:15:25.479Z,4.28
2022-10-09T02:16:25.448Z,4.30
2022-10-09T02:17:25.443Z,4.40
2022-10-09T02:18:25.427Z,4.38
2022-10-09T02:19:25.418Z,4.48
2022-10-09T02:20:25.437Z,4.46
2022-10-09T02:21:25.411Z,4.55
2022-10-09T02:22:25.418Z,4.61
2022-10-09T02:23:25.383Z,4.59
2022-10-09T02:24:25.371Z,4.66
2022-10-09T02:25:25.401Z,4.66
2022-10-09T02:26:25.363Z,4.70
2022-10-09T02:27:25.392Z,4.61
2022-10-09T02:28:25.437Z,4.71
2022-10-09T02:29:25.331Z,4.73
2022-10-09T02:30:25.361Z,4.80
2022-10-09T02:31:25.358Z,4.83
2022-10-09T02:32:25.312Z,4.88
2022-10-09T02:33:25.306Z,4.90
2022-10-09T02:34:25.293Z,4.99
2022-10-09T02:35:25.382Z,4.99
2022-10-09T02:36:25.270Z,4.96
2022-10-09T02:37:25.298Z,5.06
2022-10-09T02:38:25.305Z,4.93
2022-10-09T02:39:25.250Z,4.95
2022-10-09T02:40:25.331Z,4.92
2022-10-09T02:41:25.234Z,4.96
2022-10-09T02:42:25.226Z,4.95
2022-10-09T02:43:25.218Z,4.85
2022-10-09T02:44:25.210Z,4.95
2022-10-09T02:45:25.198Z,4.86
2022-10-09T02:46:25.258Z,4.86
2022-10-09T02:47:25.179Z,4.93
2022-10-09T02:48:25.173Z,4.95
2022-10-09T02:49:25.164Z,5.04
2022-10-09T02:50:25.153Z,5.07
2022-10-09T02:51:25.178Z,5.04
2022-10-09T02:52:25.141Z,5.03
2022-10-09T02:53:25.127Z,5.01
2022-10-09T02:54:25.127Z,4.96
2022-10-09T02:55:25.113Z,4.98
2022-10-09T02:56:25.134Z,5.10
2022-10-09T02:57:25.102Z,5.08
2022-10-09T02:58:25.091Z,5.19
2022-10-09T02:59:25.088Z,5.13
2022-10-09T03:00:25.078Z,5.21
2022-10-09T03:01:25.135Z,5.16
2022-10-09T03:02:25.188Z,5.07
2022-10-09T03:03:26.053Z,5.03
2022-10-09T03:04:25.041Z,4.99
2022-10-09T03:05:25.035Z,5.01
2022-10-09T03:06:25.058Z,5.06
2022-10-09T03:07:25.039Z,5.06
2022-10-09T03:08:25.011Z,5.13
2022-10-09T03:09:25.029Z,5.04
2022-10-09T03:10:24.986Z,5.08
2022-10-09T03:11:25.019Z,4.96
2022-10-09T03:12:24.977Z,4.98
2022-10-09T03:13:25.000Z,4.98
2022-10-09T03:14:42.139Z,4.96
2022-10-09T03:15:25.946Z,4.98
2022-10-09T03:16:25.075Z,4.90
2022-10-09T03:17:24.944Z,5.06
2022-10-09T03:18:24.935Z,5.08
2022-10-09T03:19:24.917Z,4.99
2022-10-09T03:20:24.910Z,4.96
2022-10-09T03:21:24.927Z,5.08
2022-10-09T03:22:24.910Z,5.07
2022-10-09T03:23:24.889Z,4.95
2022-10-09T03:24:24.872Z,4.92
2022-10-09T03:25:24.869Z,4.98
2022-10-09T03:26:24.905Z,4.90
2022-10-09T03:27:24.839Z,4.86
2022-10-09T03:28:24.938Z,4.80
2022-10-09T03:29:24.823Z,4.89
2022-10-09T03:30:24.819Z,4.86
2022-10-09T03:31:50.667Z,4.88
2022-10-09T03:32:26.829Z,4.95
2022-10-09T03:33:24.791Z,4.86
2022-10-09T03:34:24.787Z,4.90
2022-10-09T03:35:24.774Z,4.90
2022-10-09T03:36:25.011Z,4.89
2022-10-09T03:37:24.862Z,4.92
2022-10-09T03:38:24.752Z,5.03
2022-10-09T03:40:05.040Z,4.88
2022-10-09T03:40:24.735Z,4.92
2022-10-09T03:41:24.761Z,4.99
2022-10-09T03:42:24.724Z,4.79
2022-10-09T03:43:24.709Z,4.88
2022-10-09T03:44:24.702Z,4.90
2022-10-09T03:45:24.700Z,4.98
2022-10-09T03:46:24.760Z,4.93
2022-10-09T03:47:24.686Z,4.98
2022-10-09T03:48:24.658Z,4.99
2022-10-09T03:49:25.664Z,4.99
2022-10-09T03:50:24.655Z,5.08
2022-10-09T03:51:24.671Z,5.06
2022-10-09T03:52:24.633Z,4.92
2022-10-09T03:53:24.626Z,4.99
2022-10-09T03:54:24.620Z,5.03
2022-10-09T03:55:24.636Z,5.01
2022-10-09T03:56:24.635Z,4.98
2022-10-09T03:57:24.590Z,4.85
2022-10-09T03:58:24.589Z,4.77
2022-10-09T03:59:24.579Z,4.93
2022-10-09T04:00:24.573Z,4.90
2022-10-09T04:01:24.639Z,4.92
2022-10-09T04:02:24.563Z,4.90
2022-10-09T04:03:24.599Z,4.90
2022-10-09T04:04:24.550Z,5.03
2022-10-09T04:05:24.535Z,4.90
2022-10-09T04:06:24.566Z,4.93
2022-10-09T04:07:24.512Z,4.90
2022-10-09T04:08:24.503Z,4.86
2022-10-09T04:09:24.496Z,4.83
2022-10-09T04:10:24.473Z,4.88
2022-10-09T04:11:24.476Z,4.92
2022-10-09T04:12:24.529Z,4.95
2022-10-09T04:13:24.455Z,4.89
2022-10-09T04:14:24.467Z,4.99
2022-10-09T04:15:24.439Z,4.85
2022-10-09T04:16:24.461Z,4.93
2022-10-09T04:17:24.463Z,4.88
2022-10-09T04:18:24.421Z,4.88
2022-10-09T04:19:24.405Z,4.86
2022-10-09T04:20:24.408Z,4.89
2022-10-09T04:21:24.391Z,4.88
2022-10-09T04:22:24.411Z,4.88
2022-10-09T04:23:24.378Z,4.76
2022-10-09T04:24:24.361Z,4.74
2022-10-09T04:25:24.362Z,4.66
2022-10-09T04:26:24.343Z,4.67
2022-10-09T04:27:24.402Z,4.69
2022-10-09T04:28:24.384Z,4.64
2022-10-09T04:29:24.314Z,4.61
2022-10-09T04:30:24.323Z,4.76
2022-10-09T04:31:24.336Z,4.63
2022-10-09T04:32:24.437Z,4.70
2022-10-09T04:33:24.291Z,4.70
2022-10-09T04:34:24.282Z,4.63
2022-10-09T04:35:24.281Z,4.56
2022-10-09T04:36:24.266Z,4.66
2022-10-09T04:37:24.286Z,4.61
2022-10-09T04:38:24.260Z,4.76
2022-10-09T04:39:24.246Z,4.79
2022-10-09T04:40:30.990Z,4.73
2022-10-09T04:41:24.231Z,4.74
2022-10-09T04:42:24.242Z,4.69
2022-10-09T04:43:24.203Z,4.69
2022-10-09T04:44:25.931Z,4.74
2022-10-09T04:45:24.210Z,4.67
2022-10-09T04:46:24.177Z,4.64
2022-10-09T04:47:24.201Z,4.69
2022-10-09T04:48:24.175Z,4.61
2022-10-09T04:49:24.153Z,4.61
2022-10-09T04:50:24.147Z,4.56
2022-10-09T04:51:24.133Z,4.64
2022-10-09T04:52:24.158Z,4.64
2022-10-09T04:53:24.125Z,4.63
2022-10-09T04:54:24.119Z,4.71
2022-10-09T04:55:24.105Z,4.79
2022-10-09T04:56:24.099Z,4.74
2022-10-09T04:57:24.121Z,4.80
2022-10-09T04:58:24.075Z,4.70
2022-10-09T04:59:24.068Z,4.77
2022-10-09T05:00:24.077Z,4.70
2022-10-09T05:01:24.093Z,4.70
2022-10-09T05:02:24.145Z,4.63
2022-10-09T05:03:24.053Z,4.67
2022-10-09T05:04:24.028Z,4.61
2022-10-09T05:05:24.032Z,4.67
2022-10-09T05:06:24.015Z,4.61
2022-10-09T05:07:24.037Z,4.52
2022-10-09T05:08:23.995Z,4.56
2022-10-09T05:09:24.000Z,4.49
2022-10-09T05:10:23.983Z,4.49
2022-10-09T05:11:23.978Z,4.49
2022-10-09T05:12:24.005Z,4.53
2022-10-09T05:13:23.955Z,4.46
2022-10-09T05:14:23.942Z,4.48
2022-10-09T05:15:23.938Z,4.41
2022-10-09T05:16:23.967Z,4.38
2022-10-09T05:17:24.033Z,4.28
2022-10-09T05:18:23.921Z,4.30
2022-10-09T05:19:23.914Z,4.28
2022-10-09T05:20:23.898Z,4.38
2022-10-09T05:21:23.900Z,4.33
2022-10-09T05:22:23.916Z,4.38
2022-10-09T05:23:23.878Z,4.38
2022-10-09T05:24:23.868Z,4.38
2022-10-09T05:25:23.861Z,4.40
2022-10-09T05:26:23.850Z,4.37
2022-10-09T05:27:23.877Z,4.34
2022-10-09T05:28:23.904Z,4.34
2022-10-09T05:29:23.839Z,4.37
2022-10-09T05:30:23.815Z,4.40
2022-10-09T05:31:23.852Z,4.40
2022-10-09T05:32:23.791Z,4.35
2022-10-09T05:33:23.831Z,4.19
2022-10-09T05:34:23.790Z,4.27
2022-10-09T05:35:23.773Z,4.31
2022-10-09T05:36:23.785Z,4.20
2022-10-09T05:37:23.759Z,4.28
2022-10-09T05:38:37.128Z,4.31
2022-10-09T05:39:23.753Z,4.31
2022-10-09T05:40:28.405Z,4.31
2022-10-09T05:41:25.733Z,4.40
2022-10-09T05:42:23.709Z,4.46
2022-10-09T05:43:24.740Z,4.45
2022-10-09T05:44:23.696Z,4.49
2022-10-09T05:45:23.704Z,4.37
2022-10-09T05:46:23.677Z,4.48
2022-10-09T05:47:23.668Z,4.37
2022-10-09T05:48:23.693Z,4.45
2022-10-09T05:49:23.656Z,4.40
2022-10-09T05:50:23.642Z,4.52
2022-10-09T05:51:23.632Z,4.52
2022-10-09T05:52:23.625Z,4.41
2022-10-09T05:53:23.708Z,4.41
2022-10-09T05:54:23.615Z,4.40
2022-10-09T05:55:23.604Z,4.38
2022-10-09T05:56:23.589Z,4.35
2022-10-09T05:57:23.585Z,4.28
2022-10-09T05:58:23.609Z,4.30
2022-10-09T05:59:23.569Z,4.37
2022-10-09T06:00:23.556Z,4.37
2022-10-09T06:01:23.621Z,4.28
2022-10-09T06:02:23.577Z,4.31
2022-10-09T06:03:23.557Z,4.38
2022-10-09T06:04:23.521Z,4.35
2022-10-09T06:05:23.519Z,4.34
2022-10-09T06:06:23.508Z,4.31
2022-10-09T06:07:23.504Z,4.34
2022-10-09T06:08:23.526Z,4.30
2022-10-09T06:09:23.622Z,4.37
2022-10-09T06:10:23.479Z,4.35
2022-10-09T06:11:23.476Z,4.30
2022-10-09T06:12:23.463Z,4.35
2022-10-09T06:13:23.482Z,4.31
2022-10-09T06:14:23.442Z,4.38
2022-10-09T06:15:23.436Z,4.41
2022-10-09T06:16:23.453Z,4.38
2022-10-09T06:17:23.431Z,4.31
2022-10-09T06:18:23.439Z,4.35
2022-10-09T06:19:23.431Z,4.43
2022-10-09T06:20:23.385Z,4.38
2022-10-09T06:21:23.377Z,4.45
2022-10-09T06:22:24.385Z,4.48
2022-10-09T06:23:23.396Z,4.55
2022-10-09T06:24:28.143Z,4.53
2022-10-09T06:25:25.359Z,4.52
2022-10-09T06:26:23.343Z,4.59
2022-10-09T06:27:23.337Z,4.45
2022-10-09T06:28:23.423Z,4.41
2022-10-09T06:29:23.318Z,4.23
2022-10-09T06:30:23.311Z,4.30
2022-10-09T06:31:23.355Z,4.34
2022-10-09T06:32:23.292Z,4.37
2022-10-09T06:33:23.308Z,4.51
2022-10-09T06:34:23.280Z,4.48
2022-10-09T06:35:23.265Z,4.59
2022-10-09T06:36:23.254Z,4.63
2022-10-09T06:37:23.247Z,4.53
2022-10-09T06:38:23.267Z,4.52
2022-10-09T06:39:23.238Z,4.53
2022-10-09T06:40:23.231Z,4.53
2022-10-09T06:41:23.212Z,4.53
2022-10-09T06:42:23.210Z,4.69
2022-10-09T06:43:23.233Z,4.56
2022-10-09T06:44:23.188Z,4.48
2022-10-09T06:45:23.192Z,4.52
2022-10-09T06:46:23.209Z,4.53
2022-10-09T06:47:23.164Z,4.49
2022-10-09T06:48:23.191Z,4.53
2022-10-09T06:49:23.151Z,4.71
2022-10-09T06:50:23.135Z,4.64
2022-10-09T06:51:23.123Z,4.69
2022-10-09T06:52:30.274Z,4.79
2022-10-09T06:53:24.138Z,4.79
2022-10-09T06:54:23.103Z,4.83
2022-10-09T06:55:27.854Z,4.90
2022-10-09T06:56:25.090Z,5.08
2022-10-09T06:57:23.083Z,5.06
2022-10-09T06:58:23.099Z,5.16
2022-10-09T06:59:23.062Z,4.95
2022-10-09T07:00:23.054Z,5.03
2022-10-09T07:01:23.079Z,4.98
2022-10-09T07:02:23.070Z,4.93
2022-10-09T07:03:23.033Z,4.95
2022-10-09T07:04:23.041Z,4.86
2022-10-09T07:05:23.008Z,4.98
2022-10-09T07:06:22.995Z,5.03
2022-10-09T07:07:22.992Z,5.04
2022-10-09T07:08:22.980Z,5.17
2022-10-09T07:09:23.008Z,5.25
2022-10-09T07:10:25.302Z,5.26
2022-10-09T07:11:23.951Z,5.28
2022-10-09T07:12:22.944Z,5.32
2022-10-09T07:13:22.937Z,5.31
2022-10-09T07:14:22.953Z,5.26
2022-10-09T07:15:22.921Z,5.39
2022-10-09T07:16:22.953Z,5.28
2022-10-09T07:17:22.905Z,5.31
2022-10-09T07:18:22.924Z,5.40
2022-10-09T07:19:22.884Z,5.44
2022-10-09T07:20:22.866Z,5.64
2022-10-09T07:21:23.903Z,5.68
2022-10-09T07:22:26.840Z,5.40
2022-10-09T07:23:23.883Z,5.59
2022-10-09T07:24:22.853Z,5.61
2022-10-09T07:25:22.844Z,5.64
2022-10-09T07:26:22.835Z,5.53
2022-10-09T07:27:22.824Z,5.47
2022-10-09T07:28:22.913Z,5.50
2022-10-09T07:29:22.817Z,5.58
2022-10-09T07:30:22.786Z,5.47
2022-10-09T07:31:22.830Z,5.54
2022-10-09T07:32:22.780Z,5.61
2022-10-09T07:33:22.796Z,5.67
2022-10-09T07:34:22.775Z,5.74
2022-10-09T07:35:22.749Z,5.82
2022-10-09T07:36:22.748Z,5.72
2022-10-09T07:37:22.734Z,5.87
2022-10-09T07:38:22.756Z,5.94
2022-10-09T07:39:22.718Z,5.90
2022-10-09T07:40:22.702Z,5.82
2022-10-09T07:41:22.704Z,5.80
2022-10-09T07:42:22.682Z,5.94
2022-10-09T07:43:22.722Z,5.92
2022-10-09T07:44:22.676Z,5.79
2022-10-09T07:45:22.663Z,5.68
2022-10-09T07:46:22.682Z,5.71
2022-10-09T07:47:23.646Z,5.86
2022-10-09T07:48:22.643Z,5.65
2022-10-09T07:49:22.684Z,5.69
2022-10-09T07:50:22.620Z,5.79
2022-10-09T07:51:22.614Z,5.80
2022-10-09T07:52:25.549Z,5.82
2022-10-09T07:53:22.593Z,5.86
2022-10-09T07:54:22.615Z,6.03
2022-10-09T07:55:22.575Z,6.00
2022-10-09T07:56:22.613Z,6.01
2022-10-09T07:57:22.563Z,6.19
2022-10-09T07:58:22.557Z,6.10
2022-10-09T07:59:22.572Z,6.18
2022-10-09T08:00:22.541Z,6.30
2022-10-09T08:01:22.582Z,6.22
2022-10-09T08:02:22.609Z,6.42
2022-10-09T08:03:22.516Z,6.56
2022-10-09T08:04:22.546Z,6.62
2022-10-09T08:05:22.501Z,6.65
2022-10-09T08:06:22.499Z,6.75
2022-10-09T08:07:22.482Z,6.89
2022-10-09T08:08:22.494Z,6.85
2022-10-09T08:09:22.513Z,6.80
2022-10-09T08:10:22.463Z,6.95
2022-10-09T08:11:22.442Z,6.93
2022-10-09T08:12:22.436Z,6.85
2022-10-09T08:13:22.432Z,6.78
2022-10-09T08:14:22.453Z,6.85
2022-10-09T08:15:22.415Z,6.99
2022-10-09T08:16:22.433Z,7.11
2022-10-09T08:17:22.391Z,7.23
2022-10-09T08:18:22.384Z,7.23
2022-10-09T08:19:22.403Z,7.14
2022-10-09T08:20:22.367Z,7.26
2022-10-09T08:21:22.362Z,7.18
2022-10-09T08:22:22.350Z,7.42
2022-10-09T08:23:22.349Z,7.57
2022-10-09T08:24:22.360Z,7.53
2022-10-09T08:25:22.330Z,7.49
2022-10-09T08:26:22.320Z,7.54
2022-10-09T08:27:22.320Z,7.54
2022-10-09T08:28:22.372Z,7.50
2022-10-09T08:29:22.291Z,7.68
2022-10-09T08:30:22.281Z,7.86
2022-10-09T08:31:22.354Z,7.70
2022-10-09T08:32:22.302Z,7.64
2022-10-09T08:33:22.287Z,7.76
2022-10-09T08:34:22.250Z,7.70
2022-10-09T08:35:22.242Z,7.88
2022-10-09T08:36:22.228Z,7.96
2022-10-09T08:37:22.223Z,7.91
2022-10-09T08:38:45.639Z,8.11
2022-10-09T08:39:24.239Z,7.98
2022-10-09T08:40:22.206Z,7.86
2022-10-09T08:41:22.185Z,7.98
2022-10-09T08:42:22.183Z,7.94
2022-10-09T08:43:22.190Z,8.11
2022-10-09T08:44:22.194Z,8.08
2022-10-09T08:45:22.157Z,7.84
2022-10-09T08:46:22.192Z,7.91
2022-10-09T08:47:22.138Z,8.15
2022-10-09T08:48:22.130Z,8.23
2022-10-09T08:49:22.152Z,8.42
2022-10-09T08:50:22.158Z,8.54
2022-10-09T08:51:22.111Z,8.82
2022-10-09T08:52:22.096Z,8.72
2022-10-09T08:53:22.089Z,8.77
2022-10-09T08:54:22.131Z,8.78
2022-10-09T08:55:22.069Z,8.73
2022-10-09T08:56:22.065Z,8.67
2022-10-09T08:57:22.053Z,8.67
2022-10-09T08:58:22.045Z,9.00
2022-10-09T08:59:22.109Z,9.16
2022-10-09T09:00:22.096Z,9.32
2022-10-09T09:01:22.058Z,9.33
2022-10-09T09:02:22.108Z,9.40
2022-10-09T09:03:22.017Z,9.43
2022-10-09T09:04:22.026Z,9.40
2022-10-09T09:05:21.992Z,9.61
2022-10-09T09:06:21.986Z,10.00
2022-10-09T09:07:21.973Z,10.16
2022-10-09T09:08:21.965Z,10.53
2022-10-09T09:09:21.986Z,10.60
2022-10-09T09:10:22.004Z,10.77
2022-10-09T09:11:22.064Z,10.74
2022-10-09T09:12:21.928Z,10.65
2022-10-09T09:13:21.928Z,10.35
2022-10-09T09:14:21.947Z,10.18
2022-10-09T09:15:21.910Z,9.94
2022-10-09T09:16:21.930Z,10.19
2022-10-09T09:17:21.904Z,10.31
2022-10-09T09:18:21.893Z,10.57
2022-10-09T09:19:21.900Z,10.75
2022-10-09T09:20:21.897Z,10.77
2022-10-09T09:21:21.863Z,10.87
2022-10-09T09:22:21.849Z,11.03
2022-10-09T09:23:28.788Z,11.05
2022-10-09T09:24:21.866Z,11.23
2022-10-09T09:25:21.827Z,11.26
2022-10-09T09:26:21.819Z,11.23
2022-10-09T09:27:21.809Z,11.56
2022-10-09T09:28:21.863Z,12.02
2022-10-09T09:29:21.833Z,11.99
2022-10-09T09:30:21.823Z,11.99
2022-10-09T09:31:21.853Z,11.77
2022-10-09T09:32:21.817Z,12.42
2022-10-09T09:33:21.757Z,13.09
2022-10-09T09:34:21.791Z,13.35
2022-10-09T09:35:21.741Z,14.08
2022-10-09T09:36:21.737Z,14.32
2022-10-09T09:37:21.720Z,14.00
2022-10-09T09:38:21.722Z,14.33
2022-10-09T09:40:36.206Z,17.02
2022-10-09T09:41:23.691Z,17.79
2022-10-09T09:42:21.687Z,17.89
2022-10-09T09:43:21.676Z,17.93
2022-10-09T09:44:21.697Z,18.25
2022-10-09T09:45:21.658Z,18.53
2022-10-09T09:46:21.709Z,18.73
2022-10-09T09:47:21.643Z,19.19
2022-10-09T09:48:21.640Z,19.85
2022-10-09T09:49:21.685Z,20.29
2022-10-09T09:50:45.720Z,20.62
2022-10-09T09:51:28.440Z,20.69
2022-10-09T09:52:23.596Z,20.40
2022-10-09T09:53:21.601Z,20.11
2022-10-09T09:54:21.594Z,20.56
2022-10-09T09:55:21.623Z,21.10
2022-10-09T09:56:21.575Z,21.05
2022-10-09T09:57:22.192Z,20.90
2022-10-09T09:58:22.564Z,20.09
2022-10-09T09:59:21.559Z,20.18
2022-10-09T10:00:21.574Z,20.72
2022-10-09T10:01:21.620Z,20.95
2022-10-09T10:02:21.611Z,21.30
2022-10-09T10:03:22.527Z,21.42
2022-10-09T10:04:21.509Z,21.30
2022-10-09T10:05:21.534Z,20.99
2022-10-09T10:06:21.496Z,20.41
2022-10-09T10:07:21.490Z,20.21
2022-10-09T10:08:21.481Z,20.90
2022-10-09T10:09:21.480Z,21.12
2022-10-09T10:10:25.323Z,20.78
2022-10-09T10:11:22.469Z,21.32
2022-10-09T10:12:21.455Z,21.61
2022-10-09T10:13:21.456Z,21.88
2022-10-09T10:14:21.437Z,22.30
2022-10-09T10:15:21.457Z,22.41
2022-10-09T10:16:21.461Z,22.77
2022-10-09T10:17:21.413Z,22.98
2022-10-09T10:18:21.410Z,23.25
2022-10-09T10:19:21.402Z,23.99
2022-10-09T10:20:21.420Z,23.95
2022-10-09T10:21:21.391Z,23.84
2022-10-09T10:22:21.377Z,23.95
2022-10-09T10:23:21.368Z,24.08
2022-10-09T10:24:21.366Z,23.92
2022-10-09T10:25:21.382Z,24.07
2022-10-09T10:26:21.352Z,24.00
2022-10-09T10:27:21.342Z,23.71
2022-10-09T10:28:21.370Z,23.83
2022-10-09T10:29:21.325Z,23.90
2022-10-09T10:30:21.332Z,23.93
2022-10-09T10:31:22.352Z,23.65
2022-10-09T10:32:21.303Z,24.10
2022-10-09T10:33:21.295Z,24.29
2022-10-09T10:34:21.286Z,24.30
2022-10-09T10:35:21.310Z,24.50
2022-10-09T10:36:21.278Z,24.52
2022-10-09T10:37:21.272Z,24.51
2022-10-09T10:38:21.284Z,24.60
2022-10-09T10:39:21.256Z,24.67
2022-10-09T10:40:21.280Z,24.95
2022-10-09T10:41:21.250Z,24.82
2022-10-09T10:42:21.228Z,25.35
2022-10-09T10:43:21.229Z,25.33
2022-10-09T10:44:21.218Z,25.40
2022-10-09T10:45:21.239Z,25.03
2022-10-09T10:46:21.254Z,25.55
2022-10-09T10:47:21.200Z,24.95
2022-10-09T10:48:21.201Z,25.45
2022-10-09T10:49:21.191Z,25.81
2022-10-09T10:50:21.222Z,26.04
2022-10-09T10:51:21.186Z,26.18
2022-10-09T10:52:21.166Z,26.02
2022-10-09T10:53:21.163Z,25.81
2022-10-09T10:54:21.155Z,25.78
2022-10-09T10:55:21.182Z,26.04
2022-10-09T10:56:21.159Z,26.37
2022-10-09T10:57:21.145Z,25.65
2022-10-09T10:59:22.131Z,25.62
2022-10-09T11:00:21.154Z,25.59
2022-10-09T11:01:21.179Z,25.51
2022-10-09T11:02:21.124Z,26.04
2022-10-09T11:03:21.163Z,24.89
2022-10-09T11:04:21.095Z,24.92
2022-10-09T11:05:21.108Z,25.10
2022-10-09T11:06:21.077Z,24.92
2022-10-09T11:07:21.070Z,24.86
2022-10-09T11:08:21.063Z,24.67
2022-10-09T11:09:21.062Z,23.95
2022-10-09T11:10:21.080Z,23.41
2022-10-09T11:11:21.036Z,24.28
2022-10-09T11:12:43.395Z,25.11
2022-10-09T11:13:23.027Z,25.38
2022-10-09T11:14:21.025Z,26.28
2022-10-09T11:15:21.055Z,26.23
2022-10-09T11:16:21.040Z,26.43
2022-10-09T11:17:21.007Z,25.69
2022-10-09T11:18:21.006Z,26.22
2022-10-09T11:19:20.984Z,26.85
2022-10-09T11:20:21.012Z,26.38
2022-10-09T11:21:20.978Z,25.93
2022-10-09T11:22:20.972Z,24.77
2022-10-09T11:23:20.970Z,25.59
2022-10-09T11:24:20.958Z,26.04
2022-10-09T11:25:20.986Z,27.08
2022-10-09T11:26:20.938Z,26.92
2022-10-09T11:27:20.941Z,27.00
2022-10-09T11:28:20.985Z,26.37
2022-10-09T11:29:20.925Z,26.26
2022-10-09T11:30:20.952Z,25.47
2022-10-09T11:31:20.936Z,25.50
2022-10-09T11:32:20.898Z,25.80
2022-10-09T11:33:20.906Z,26.55
2022-10-09T11:34:20.887Z,26.90
2022-10-09T11:35:20.906Z,26.86
2022-10-09T11:36:20.878Z,25.92
2022-10-09T11:37:20.864Z,26.11
2022-10-09T11:38:20.859Z,25.38
2022-10-09T11:39:20.860Z,24.91
2022-10-09T11:40:20.875Z,24.91
2022-10-09T11:41:20.836Z,25.01
2022-10-09T11:42:20.832Z,24.25
2022-10-09T11:43:20.823Z,24.30
2022-10-09T11:44:20.824Z,25.03
2022-10-09T11:45:20.854Z,25.81
2022-10-09T11:46:20.897Z,25.85
2022-10-09T11:47:20.800Z,24.96
2022-10-09T11:48:20.795Z,23.86
2022-10-09T11:49:20.789Z,23.73
2022-10-09T11:50:20.820Z,23.51
2022-10-09T11:51:20.770Z,23.71
2022-10-09T11:52:20.762Z,23.73
2022-10-09T11:53:20.759Z,24.13
2022-10-09T11:54:20.758Z,24.13
2022-10-09T11:55:20.743Z,24.78
2022-10-09T11:56:20.761Z,25.75
2022-10-09T11:57:20.727Z,26.18
2022-10-09T11:58:20.722Z,25.53
2022-10-09T11:59:20.719Z,25.51
2022-10-09T12:00:20.708Z,24.69
2022-10-09T12:01:20.791Z,23.95
2022-10-09T12:02:20.718Z,24.02
2022-10-09T12:03:20.689Z,24.23
2022-10-09T12:04:27.802Z,24.30
2022-10-09T12:05:22.674Z,24.07
2022-10-09T12:06:20.692Z,24.58
2022-10-09T12:07:20.659Z,24.92
2022-10-09T12:08:20.726Z,24.65
2022-10-09T12:09:20.645Z,24.66
2022-10-09T12:10:20.648Z,25.18
2022-10-09T12:11:20.667Z,25.96
2022-10-09T12:12:20.629Z,26.31
2022-10-09T12:13:20.623Z,26.78
2022-10-09T12:14:20.608Z,27.14
2022-10-09T12:15:20.611Z,27.51
2022-10-09T12:16:20.719Z,26.28
2022-10-09T12:17:20.596Z,24.45
2022-10-09T12:18:20.588Z,23.68
2022-10-09T12:19:20.579Z,23.74
2022-10-09T12:20:20.570Z,24.28
2022-10-09T12:21:20.590Z,24.39
2022-10-09T12:22:20.572Z,23.73
2022-10-09T12:23:28.332Z,22.96
2022-10-09T12:24:22.542Z,23.46
2022-10-09T12:25:20.535Z,22.85
2022-10-09T12:26:20.558Z,22.48
2022-10-09T12:27:20.518Z,22.11
2022-10-09T12:28:20.548Z,22.33
2022-10-09T12:29:20.505Z,22.38
2022-10-09T12:30:20.493Z,22.47
2022-10-09T12:31:20.552Z,21.61
2022-10-09T12:32:20.479Z,21.69
2022-10-09T12:33:20.478Z,22.25
2022-10-09T12:34:20.460Z,22.07
2022-10-09T12:35:20.480Z,21.50
2022-10-09T12:36:20.480Z,21.67
2022-10-09T12:37:20.449Z,21.70
2022-10-09T12:38:20.432Z,21.55
2022-10-09T12:39:20.437Z,21.96
2022-10-09T12:40:20.423Z,21.58
2022-10-09T12:41:20.511Z,20.92
2022-10-09T12:42:21.463Z,21.21
2022-10-09T12:43:20.404Z,21.39
2022-10-09T12:44:20.394Z,21.30
2022-10-09T12:45:20.381Z,21.73
2022-10-09T12:46:20.428Z,22.04
2022-10-09T12:47:20.396Z,21.58
2022-10-09T12:48:21.362Z,22.07
2022-10-09T12:49:20.359Z,21.82
2022-10-09T12:50:20.343Z,21.96
2022-10-09T12:51:20.381Z,22.69
2022-10-09T12:52:20.324Z,22.48
2022-10-09T12:53:20.326Z,22.72
2022-10-09T12:54:20.318Z,22.80
2022-10-09T12:55:20.308Z,22.23
2022-10-09T12:56:20.331Z,21.58
2022-10-09T12:57:23.986Z,21.89
2022-10-09T12:58:22.279Z,22.28
2022-10-09T12:59:20.303Z,23.24
2022-10-09T13:00:20.267Z,23.73
2022-10-09T13:01:20.380Z,23.71
2022-10-09T13:02:20.382Z,23.80
2022-10-09T13:03:20.246Z,23.77
2022-10-09T13:04:20.251Z,22.69
2022-10-09T13:05:20.228Z,22.25
2022-10-09T13:06:20.220Z,22.68
2022-10-09T13:07:20.246Z,23.14
2022-10-09T13:08:20.202Z,22.25
2022-10-09T13:09:20.204Z,21.92
2022-10-09T13:10:20.195Z,21.92
2022-10-09T13:11:20.178Z,21.65
2022-10-09T13:12:20.271Z,21.36